Time;durP1;ratioP1;P1;durP2;ratioP2;P2;SDS_P1;SDS_P2;PMS_P1;PMS_P2;Temp;Humidity;BMP_temperature;BMP_pressure;BME280_temperature;BME280_humidity;BME280_pressure;Samples;Min_cycle;Max_cycle;Signal;HPM_P1;HPM_P2
2024/04/23 00:01:57;;;;;;;5.50;2.67;;;;;;;6.18;42.89;102479.72;5383438;26;95030;-87
2024/04/23 00:04:22;;;;;;;5.10;2.10;;;;;;;6.18;42.75;102477.13;5413100;26;98694;-88
2024/04/23 00:07:00;;;;;;;4.85;2.70;;;;;;;6.13;43.18;102476.84;5413040;26;95864;-87
2024/04/23 00:09:26;;;;;;;6.45;3.05;;;;;;;6.13;43.10;102475.97;5413441;26;94601;-87
2024/04/23 00:11:52;;;;;;;5.05;2.28;;;;;;;6.08;43.25;102471.41;5362883;26;94867;-87
2024/04/23 00:14:17;;;;;;;4.03;2.20;;;;;;;6.05;43.29;102473.81;5376778;26;95560;-87
2024/04/23 00:16:43;;;;;;;5.38;3.20;;;;;;;6.02;43.31;102467.59;5376361;26;100023;-87
2024/04/23 00:19:08;;;;;;;6.22;2.45;;;;;;;6.01;43.47;102463.22;5376792;26;94708;-87
2024/04/23 00:21:34;;;;;;;6.18;2.40;;;;;;;6.01;43.43;102461.50;5396507;26;94972;-88
2024/04/23 00:23:59;;;;;;;7.25;3.30;;;;;;;6.03;43.48;102464.19;5383033;26;98663;-88
2024/04/23 00:26:25;;;;;;;4.78;2.38;;;;;;;6.02;43.34;102457.22;5386404;26;97257;-87
2024/04/23 00:28:51;;;;;;;6.47;2.38;;;;;;;6.02;43.53;102457.22;5379190;26;94743;-88
2024/04/23 00:31:17;;;;;;;7.18;3.25;;;;;;;6.02;43.73;102449.44;5347538;26;95286;-88
2024/04/23 00:33:43;;;;;;;5.43;3.30;;;;;;;6.02;43.71;102460.69;5381254;26;98316;-87
2024/04/23 00:36:10;;;;;;;6.28;3.35;;;;;;;6.04;43.71;102451.34;5413119;26;98573;-87
2024/04/23 00:38:36;;;;;;;7.43;3.67;;;;;;;6.05;44.02;102447.91;5382832;26;94625;-87
2024/04/23 00:41:01;;;;;;;5.97;2.63;;;;;;;6.07;43.97;102448.91;5413282;26;94919;-88
2024/04/23 00:43:27;;;;;;;6.05;2.42;;;;;;;6.08;43.84;102444.63;5381966;26;98311;-88
2024/04/23 00:45:57;;;;;;;7.07;2.50;;;;;;;6.04;43.90;102440.97;5414691;25;95457;-88
2024/04/23 00:48:23;;;;;;;5.68;3.13;;;;;;;6.02;43.86;102436.50;5413028;26;94651;-87
2024/04/23 00:50:49;;;;;;;4.90;3.47;;;;;;;5.97;43.85;102436.25;5382878;26;95015;-87
2024/04/23 00:53:15;;;;;;;8.27;3.05;;;;;;;5.95;44.04;102437.81;5382278;26;98352;-87
2024/04/23 00:55:41;;;;;;;4.88;2.42;;;;;;;5.91;44.27;102435.84;5382132;26;97814;-87
2024/04/23 00:58:07;;;;;;;7.82;3.28;;;;;;;5.89;44.24;102434.88;5382707;26;94608;-87
2024/04/23 01:00:33;;;;;;;4.93;2.95;;;;;;;5.86;44.10;102435.56;5413515;26;95004;-87
2024/04/23 01:02:58;;;;;;;5.80;2.70;;;;;;;5.84;44.30;102431.13;5413306;26;95605;-88
2024/04/23 01:05:24;;;;;;;5.60;3.35;;;;;;;5.83;44.42;102431.91;5379411;26;97466;-88
2024/04/23 01:07:50;;;;;;;6.25;2.63;;;;;;;5.81;44.50;102426.69;5364636;26;94771;-88
2024/04/23 01:10:16;;;;;;;6.07;2.30;;;;;;;5.78;44.61;102429.09;5402958;26;94994;-90
2024/04/23 01:12:41;;;;;;;6.35;2.22;;;;;;;5.77;44.38;102424.69;5396910;26;98127;-89
2024/04/23 01:15:09;;;;;;;7.50;3.40;;;;;;;5.77;44.72;102421.22;5368679;26;98456;-89
2024/04/23 01:17:39;;;;;;;8.32;2.70;;;;;;;5.74;44.63;102421.97;5360078;26;94890;-90
2024/04/23 01:20:08;;;;;;;8.55;2.83;;;;;;;5.70;44.82;102413.13;5382319;26;94876;-90
2024/04/23 01:22:59;;;;;;;5.85;2.67;;;;;;;5.69;44.76;102407.84;5379966;26;97483;-88
2024/04/23 01:25:25;;;;;;;5.93;2.97;;;;;;;5.69;44.84;102411.31;5401037;25;98485;-89
2024/04/23 01:27:51;;;;;;;5.97;3.17;;;;;;;5.68;45.17;102403.47;5395281;26;94890;-89
2024/04/23 01:30:18;;;;;;;5.32;2.30;;;;;;;5.67;44.87;102405.16;5383762;26;95106;-88
2024/04/23 01:32:46;;;;;;;7.43;3.58;;;;;;;5.64;45.04;102401.50;5372851;26;97785;-89
2024/04/23 01:35:13;;;;;;;5.00;2.63;;;;;;;5.63;44.86;102395.44;5380050;26;95821;-89
2024/04/23 01:37:50;;;;;;;5.55;2.25;;;;;;;5.63;45.33;102399.72;5395493;25;94827;-89
2024/04/23 01:40:16;;;;;;;5.40;2.40;;;;;;;5.62;44.96;102398.84;5403902;26;94811;-89
2024/04/23 01:42:43;;;;;;;6.68;3.20;;;;;;;5.60;45.27;102396.97;5410291;26;98610;-89
2024/04/23 01:45:11;;;;;;;4.85;3.33;;;;;;;5.59;45.10;102397.75;5375929;26;98579;-89
2024/04/23 01:47:38;;;;;;;7.10;2.88;;;;;;;5.58;45.26;102393.38;5396873;26;94923;-87
2024/04/23 01:50:04;;;;;;;7.35;2.78;;;;;;;5.55;45.35;102395.81;5412524;26;94977;-87
2024/04/23 01:52:29;;;;;;;5.15;2.65;;;;;;;5.51;45.44;102393.03;5411759;26;95618;-86
2024/04/23 01:54:55;;;;;;;5.88;2.47;;;;;;;5.48;45.36;102386.78;5411513;26;94712;-86
2024/04/23 01:57:20;;;;;;;5.97;3.00;;;;;;;5.45;45.33;102391.78;5411496;26;94751;-86
2024/04/23 01:59:50;;;;;;;7.18;2.50;;;;;;;5.38;45.50;102379.28;5375911;26;95004;-87
2024/04/23 02:02:17;;;;;;;7.20;2.58;;;;;;;5.33;45.31;102385.09;5345853;26;98176;-87
2024/04/23 02:04:44;;;;;;;5.07;3.10;;;;;;;5.29;45.88;102387.41;5375448;26;98711;-87
2024/04/23 02:07:10;;;;;;;7.93;2.50;;;;;;;5.24;45.91;102389.72;5391987;26;94694;-87
2024/04/23 02:09:36;;;;;;;5.63;3.35;;;;;;;5.20;45.79;102390.34;5381841;26;94890;-87
2024/04/23 02:12:03;;;;;;;6.65;3.42;;;;;;;5.15;45.82;102394.34;5381412;26;98652;-87
2024/04/23 02:14:29;;;;;;;7.18;3.58;;;;;;;5.09;45.92;102400.03;5381831;26;98395;-87
2024/04/23 02:16:55;;;;;;;6.63;2.92;;;;;;;5.06;46.32;102405.06;5411500;26;94855;-87
2024/04/23 02:19:20;;;;;;;5.60;3.33;;;;;;;5.03;46.26;102401.41;5381349;26;94882;-87
2024/04/23 02:21:46;;;;;;;6.10;2.70;;;;;;;5.05;46.27;102395.50;5409124;26;98604;-87
2024/04/23 02:24:11;;;;;;;5.68;2.47;;;;;;;5.05;46.30;102398.09;5382239;26;97007;-88
2024/04/23 02:26:36;;;;;;;7.15;3.25;;;;;;;5.04;46.39;102400.56;5381425;26;94780;-87
2024/04/23 02:29:02;;;;;;;8.25;3.55;;;;;;;5.03;46.14;102389.34;5382919;26;94956;-88
2024/04/23 02:31:27;;;;;;;5.45;3.40;;;;;;;5.00;46.19;102389.16;5381149;26;98504;-87
2024/04/23 02:33:52;;;;;;;6.47;3.28;;;;;;;4.96;46.33;102392.38;5380938;26;97970;-87
2024/04/23 02:36:18;;;;;;;5.90;2.55;;;;;;;4.90;46.29;102389.38;5410849;26;94780;-87
2024/04/23 02:38:43;;;;;;;5.00;2.45;;;;;;;4.86;46.53;102390.91;5411279;26;94876;-87
2024/04/23 02:41:09;;;;;;;5.93;3.40;;;;;;;4.86;46.41;102395.19;5380628;26;98557;-87
2024/04/23 02:43:34;;;;;;;10.48;3.08;;;;;;;4.84;46.52;102387.34;5406569;26;95801;-87
2024/04/23 02:45:59;;;;;;;5.82;2.35;;;;;;;4.81;46.49;102388.84;5356638;26;94797;-86
2024/04/23 02:48:25;;;;;;;5.07;2.75;;;;;;;4.79;46.67;102385.28;5401570;26;94940;-86
2024/04/23 02:50:50;;;;;;;6.68;3.50;;;;;;;4.80;46.89;102379.31;5409950;25;98478;-87
2024/04/23 02:53:16;;;;;;;7.10;3.08;;;;;;;4.78;46.74;102381.81;5410294;26;98327;-87
2024/04/23 02:55:41;;;;;;;7.55;2.78;;;;;;;4.74;46.73;102387.56;5410453;26;94739;-87
2024/04/23 02:58:07;;;;;;;7.20;2.80;;;;;;;4.69;46.87;102384.72;5368968;26;94852;-87
2024/04/23 03:00:32;;;;;;;4.95;2.75;;;;;;;4.66;46.79;102387.09;5376687;26;98090;-86
2024/04/23 03:02:57;;;;;;;7.50;2.75;;;;;;;4.64;47.12;102375.78;5396415;26;95770;-86
2024/04/23 03:05:23;;;;;;;6.50;3.33;;;;;;;4.63;47.14;102375.69;5368825;26;94706;-87
2024/04/23 03:07:48;;;;;;;7.60;2.65;;;;;;;4.62;47.04;102369.63;5383353;26;95053;-87
2024/04/23 03:10:14;;;;;;;6.75;2.63;;;;;;;4.62;47.36;102385.16;5375710;26;98464;-87
2024/04/23 03:12:39;;;;;;;6.72;3.20;;;;;;;4.61;47.31;102372.13;5381319;26;98371;-87
2024/04/23 03:15:05;;;;;;;6.88;3.60;;;;;;;4.60;47.23;102376.41;5377641;26;94750;-87
2024/04/23 03:17:31;;;;;;;6.65;2.90;;;;;;;4.56;47.71;102367.56;5407155;26;94940;-87
2024/04/23 03:19:56;;;;;;;6.35;3.08;;;;;;;4.55;47.30;102372.66;5382116;26;98696;-86
2024/04/23 03:22:22;;;;;;;5.82;2.50;;;;;;;4.54;47.33;102376.00;5385755;26;96036;-86
2024/04/23 03:24:47;;;;;;;10.60;3.58;;;;;;;4.52;47.55;102367.28;5411191;26;94749;-86
2024/04/23 03:27:12;;;;;;;6.75;3.95;;;;;;;4.53;47.41;102376.84;5361465;26;94924;-87
2024/04/23 03:29:38;;;;;;;6.03;4.13;;;;;;;4.53;47.38;102369.97;5385637;26;98498;-87
2024/04/23 03:32:04;;;;;;;6.25;2.47;;;;;;;4.51;47.55;102370.66;5400017;26;95791;-86
2024/04/23 03:34:33;;;;;;;6.80;2.67;;;;;;;4.48;47.79;102373.06;5382262;26;94808;-86
2024/04/23 03:36:58;;;;;;;6.38;2.70;;;;;;;4.47;47.73;102373.84;5367970;26;94891;-86
2024/04/23 03:39:24;;;;;;;5.78;3.13;;;;;;;4.48;47.59;102373.06;5362233;26;98311;-87
2024/04/23 03:41:57;;;;;;;6.00;3.47;;;;;;;4.46;47.74;102364.34;5347110;26;98748;-87
2024/04/23 03:44:23;;;;;;;6.03;3.38;;;;;;;4.44;47.70;102359.06;5371147;26;94730;-85
2024/04/23 03:46:49;;;;;;;8.00;2.78;;;;;;;4.41;47.69;102364.03;5413142;26;94747;-86
2024/04/23 03:49:14;;;;;;;8.07;2.50;;;;;;;4.39;47.96;102369.09;5382425;26;98563;-86
2024/04/23 03:51:40;;;;;;;6.10;3.67;;;;;;;4.38;48.28;102359.59;5414808;26;95593;-86
2024/04/23 03:54:05;;;;;;;7.72;3.00;;;;;;;4.39;47.96;102360.47;5413312;26;94683;-86
2024/04/23 03:56:30;;;;;;;7.03;3.53;;;;;;;4.41;48.08;102364.03;5431419;25;94928;-86
2024/04/23 03:58:56;;;;;;;5.47;2.70;;;;;;;4.42;48.29;102359.75;5392174;26;98530;-87
2024/04/23 04:01:21;;;;;;;7.40;3.10;;;;;;;4.41;47.99;102353.69;5390062;26;95587;-87
2024/04/23 04:06:31;;;;;;;8.77;3.47;;;;;;;4.41;48.35;102356.28;5376889;26;95088;-86
2024/04/23 04:08:56;;;;;;;7.50;2.80;;;;;;;4.38;48.19;102362.16;5375942;26;98428;-86
2024/04/23 04:11:21;;;;;;;6.10;2.70;;;;;;;4.35;48.17;102351.63;5411649;26;98111;-86
2024/04/23 04:13:47;;;;;;;6.57;3.97;;;;;;;4.34;48.24;102346.38;5399135;25;94756;-86
2024/04/23 04:16:12;;;;;;;6.43;3.15;;;;;;;4.31;48.28;102347.06;5383168;26;95053;-86
2024/04/23 04:18:38;;;;;;;6.35;3.35;;;;;;;4.29;48.52;102345.19;5411973;26;98689;-86
2024/04/23 04:21:07;;;;;;;8.80;3.15;;;;;;;4.29;48.58;102346.06;5412595;26;98423;-86
2024/04/23 04:23:33;;;;;;;7.22;3.00;;;;;;;4.27;48.65;102349.38;5382463;26;94794;-86
2024/04/23 04:25:58;;;;;;;6.03;2.88;;;;;;;4.28;48.48;102357.22;5382617;26;95009;-87
2024/04/23 04:28:24;;;;;;;6.53;3.70;;;;;;;4.26;48.67;102347.56;5382154;26;98487;-86
2024/04/23 04:30:49;;;;;;;7.20;3.15;;;;;;;4.26;48.92;102348.47;5358508;26;98456;-86
2024/04/23 04:33:14;;;;;;;7.70;3.80;;;;;;;4.28;48.78;102348.56;5382282;26;94681;-85
2024/04/23 04:35:40;;;;;;;6.78;4.28;;;;;;;4.29;48.62;102353.81;5376995;26;94977;-86
2024/04/23 04:38:05;;;;;;;9.07;3.83;;;;;;;4.30;48.80;102355.63;5381339;26;98498;-86
2024/04/23 04:40:31;;;;;;;8.60;3.78;;;;;;;4.30;49.05;102354.72;5407310;26;95779;-84
2024/04/23 04:42:57;;;;;;;9.27;4.65;;;;;;;4.31;49.11;102346.16;5390106;25;94864;-86
2024/04/23 04:45:23;;;;;;;7.30;4.35;;;;;;;4.34;49.06;102351.53;5425123;25;94878;-85
2024/04/23 04:47:49;;;;;;;8.07;3.45;;;;;;;4.33;48.96;102344.56;5403368;26;98088;-86
2024/04/23 04:50:18;;;;;;;9.45;3.15;;;;;;;4.33;49.28;102348.06;5378353;26;97618;-85
2024/04/23 04:52:44;;;;;;;8.32;3.42;;;;;;;4.34;49.39;102347.25;5412480;25;94924;-85
2024/04/23 04:55:10;;;;;;;9.00;4.05;;;;;;;4.37;49.37;102352.63;5372048;26;94910;-86
2024/04/23 04:57:35;;;;;;;8.88;3.58;;;;;;;4.36;49.27;102350.81;5403051;26;95542;-85
2024/04/23 05:00:01;;;;;;;9.05;3.65;;;;;;;4.38;49.50;102345.75;5400080;26;98006;-85
2024/04/23 05:02:26;;;;;;;10.65;3.42;;;;;;;4.38;49.50;102351.84;5379530;26;94831;-85
2024/04/23 05:04:54;;;;;;;11.40;4.78;;;;;;;4.39;49.72;102353.59;5381384;26;94958;-85
2024/04/23 05:07:19;;;;;;;8.52;4.30;;;;;;;4.43;49.55;102348.63;5387348;25;98112;-85
2024/04/23 05:09:45;;;;;;;7.28;3.45;;;;;;;4.48;49.79;102354.97;5410379;25;95710;-85
2024/04/23 05:12:10;;;;;;;8.07;3.45;;;;;;;4.53;49.78;102344.13;5412097;25;94841;-85
2024/04/23 05:14:36;;;;;;;8.68;3.63;;;;;;;4.60;49.88;102340.22;5410493;26;94880;-84
2024/04/23 05:17:01;;;;;;;9.40;4.35;;;;;;;4.66;49.41;102340.59;5411980;26;95796;-89
2024/04/23 05:19:26;;;;;;;8.77;3.65;;;;;;;4.71;49.41;102339.16;5380930;26;97470;-85
2024/04/23 05:21:52;;;;;;;9.50;4.10;;;;;;;4.75;49.69;102341.13;5400721;26;94836;-85
2024/04/23 05:24:17;;;;;;;9.60;4.95;;;;;;;4.77;49.96;102342.13;5361505;26;94956;-87
2024/04/23 05:26:43;;;;;;;8.50;5.03;;;;;;;4.82;50.06;102351.84;5413583;26;98376;-90
2024/04/23 05:29:08;;;;;;;8.73;5.22;;;;;;;4.85;50.25;102341.69;5384473;26;98253;-90
2024/04/23 05:34:18;;;;;;;12.13;4.40;;;;;;;4.92;50.06;102343.81;5413957;26;94708;-90
2024/04/23 05:36:43;;;;;;;8.63;3.95;;;;;;;4.98;50.61;102346.78;5383231;26;98688;-89
2024/04/23 05:39:08;;;;;;;10.27;4.50;;;;;;;5.06;50.55;102348.16;5413245;26;95457;-88
2024/04/23 05:41:34;;;;;;;11.05;5.72;;;;;;;5.14;50.48;102346.00;5365809;26;94820;-86
2024/04/23 05:44:00;;;;;;;11.20;4.93;;;;;;;5.25;50.46;102349.22;5389387;26;94876;-86
2024/04/23 05:46:26;;;;;;;10.20;5.45;;;;;;;5.34;50.72;102349.75;5394398;25;95883;-86
2024/04/23 05:49:29;;;;;;;16.35;5.40;;;;;;;5.43;50.83;102342.50;5355847;25;98398;-86
2024/04/23 05:52:51;;;;;;;12.35;4.82;;;;;;;5.56;50.76;102348.41;5387726;25;94811;-87
2024/04/23 05:55:40;;;;;;;11.95;5.22;;;;;;;5.65;50.77;102344.66;5400806;25;94836;-89
2024/04/23 05:58:07;;;;;;;12.57;6.57;;;;;;;5.72;50.82;102354.53;5384368;25;96851;-88
2024/04/23 06:00:33;;;;;;;9.48;4.68;;;;;;;5.79;50.99;102353.16;5404554;25;97698;-89
2024/04/23 06:02:59;;;;;;;13.35;5.60;;;;;;;5.87;51.30;102351.91;5404257;25;94928;-87
2024/04/23 06:05:24;;;;;;;13.23;6.15;;;;;;;5.97;51.14;102349.88;5400807;25;94977;-88
2024/04/23 06:07:51;;;;;;;13.25;6.00;;;;;;;6.06;51.29;102351.28;5384166;26;95740;-87
2024/04/23 06:10:16;;;;;;;14.75;7.43;;;;;;;6.19;51.31;102351.97;5420418;25;95819;-88
2024/04/23 06:12:42;;;;;;;12.40;5.75;;;;;;;6.32;51.63;102353.50;5402023;25;94776;-88
2024/04/23 06:15:07;;;;;;;14.38;6.57;;;;;;;6.48;51.69;102353.50;5406301;25;94957;-88
2024/04/23 06:17:34;;;;;;;15.88;8.52;;;;;;;6.66;52.20;102354.47;5400956;25;95019;-88
2024/04/23 06:20:00;;;;;;;15.65;6.95;;;;;;;6.89;52.98;102352.19;5400492;25;99025;-87
2024/04/23 06:22:27;;;;;;;14.52;6.93;;;;;;;7.25;53.74;102347.09;5399585;26;94776;-88
2024/04/23 06:24:55;;;;;;;14.82;7.75;;;;;;;7.68;54.27;102351.81;5385880;25;94996;-87
2024/04/23 06:27:22;;;;;;;14.45;8.80;;;;;;;8.06;53.64;102352.78;5419423;25;98742;-88
2024/04/23 06:29:51;;;;;;;12.50;7.30;;;;;;;8.35;53.08;102353.22;5371455;25;98615;-87
2024/04/23 06:32:17;;;;;;;;;;;;;;;8.68;53.02;102342.59;5374312;26;94801;-87
2024/04/23 06:34:44;;;;;;;11.95;6.07;;;;;;;9.14;53.95;102342.88;5400068;25;95448;-87
2024/04/23 06:37:10;;;;;;;12.25;5.80;;;;;;;9.81;54.37;102345.59;5390806;26;98129;-87
2024/04/23 06:39:37;;;;;;;13.18;8.25;;;;;;;10.29;52.35;102341.38;5405246;25;95507;-88
2024/04/23 06:42:03;;;;;;;13.45;7.30;;;;;;;10.55;51.80;102335.38;5407116;25;95000;-88
2024/04/23 06:44:28;;;;;;;13.27;8.55;;;;;;;10.96;51.59;102330.72;5382081;25;94933;-88
2024/04/23 06:46:54;;;;;;;14.80;8.07;;;;;;;11.18;50.33;102333.25;5362381;26;98589;-87
2024/04/23 06:49:19;;;;;;;13.20;7.20;;;;;;;11.24;49.46;102323.00;5359795;26;97435;-87
2024/04/23 06:51:45;;;;;;;11.60;6.55;;;;;;;11.30;49.06;102324.03;5393988;25;94791;-87
2024/04/23 06:54:11;;;;;;;12.23;7.38;;;;;;;11.38;49.13;102320.84;5347084;26;95078;-87
2024/04/23 06:56:36;;;;;;;12.80;7.63;;;;;;;11.46;47.81;102304.53;5372840;26;95974;-87
2024/04/23 06:59:02;;;;;;;14.13;7.80;;;;;;;11.50;47.77;102312.53;5358456;26;98403;-88
2024/04/23 07:01:29;;;;;;;13.27;8.30;;;;;;;11.51;47.22;102306.44;5389608;26;94720;-87
2024/04/23 07:03:54;;;;;;;14.70;7.47;;;;;;;11.47;46.68;102307.19;5373709;26;94961;-87
2024/04/23 07:06:20;;;;;;;12.38;7.47;;;;;;;11.44;47.22;102301.88;5397890;25;98070;-86
2024/04/23 07:08:46;;;;;;;13.60;6.40;;;;;;;11.55;48.03;102310.06;5397018;25;95872;-87
2024/04/23 07:11:12;;;;;;;10.32;7.25;;;;;;;11.87;48.91;102305.84;5395461;25;95538;-87
2024/04/23 07:13:37;;;;;;;12.13;7.07;;;;;;;12.27;48.04;102303.56;5411639;25;94926;-88
2024/04/23 07:16:03;;;;;;;11.15;5.82;;;;;;;12.73;47.69;102302.25;5376079;26;98427;-88
2024/04/23 07:18:29;;;;;;;12.43;5.60;;;;;;;13.11;47.17;102300.59;5361317;26;98826;-88
2024/04/23 07:20:54;;;;;;;10.93;6.38;;;;;;;13.37;46.60;102292.56;5369807;26;94870;-87
2024/04/23 07:23:20;;;;;;;10.55;5.45;;;;;;;13.57;45.34;102297.38;5390594;25;94864;-87
2024/04/23 07:25:49;;;;;;;8.68;5.82;;;;;;;13.71;44.40;102293.34;5374023;26;98512;-87
2024/04/23 07:28:15;;;;;;;9.18;5.47;;;;;;;13.86;43.39;102290.16;5405224;25;98662;-87
2024/04/23 07:30:42;;;;;;;9.02;5.20;;;;;;;13.93;42.42;102284.19;5422854;25;94894;-88
2024/04/23 07:33:11;;;;;;;6.78;4.35;;;;;;;13.99;42.31;102284.34;5378328;26;94867;-87
2024/04/23 07:35:37;;;;;;;7.78;4.65;;;;;;;14.08;42.68;102276.66;5369759;26;98461;-87
2024/04/23 07:38:10;;;;;;;9.38;5.20;;;;;;;14.20;42.28;102272.50;5351802;26;98336;-87
2024/04/23 07:40:36;;;;;;;9.02;3.50;;;;;;;14.41;42.73;102272.06;5373980;26;94778;-88
2024/04/23 07:43:04;;;;;;;6.80;4.47;;;;;;;14.73;42.98;102277.06;5411318;25;94917;-85
2024/04/23 07:45:33;;;;;;;8.75;5.20;;;;;;;15.09;42.84;102268.94;5374032;26;98640;-87
2024/04/23 07:47:59;;;;;;;7.35;3.83;;;;;;;15.47;43.18;102265.16;5406570;25;95824;-85
2024/04/23 07:50:25;;;;;;;7.07;4.10;;;;;;;15.95;41.90;102271.97;5410269;25;94862;-89
2024/04/23 07:52:51;;;;;;;7.63;3.78;;;;;;;16.34;40.32;102268.06;5391084;26;95047;-90
2024/04/23 07:55:16;;;;;;;7.50;4.55;;;;;;;16.73;39.65;102258.84;5375045;26;98343;-90
2024/04/23 07:57:46;;;;;;;8.32;4.05;;;;;;;17.19;39.47;102261.03;5384618;25;98800;-89
2024/04/23 08:00:13;;;;;;;7.18;3.95;;;;;;;17.75;39.42;102259.63;5355019;26;94785;-90
2024/04/23 08:02:39;;;;;;;6.57;4.35;;;;;;;18.23;37.92;102252.81;5377349;25;94754;-87
2024/04/23 08:05:05;;;;;;;9.48;4.82;;;;;;;18.62;37.74;102249.38;5387354;25;95592;-89
2024/04/23 08:07:31;;;;;;;7.45;3.80;;;;;;;18.79;36.12;102251.19;5377399;25;98944;-88
2024/04/23 08:09:57;;;;;;;6.72;4.20;;;;;;;18.84;35.70;102252.06;5388770;25;94880;-88
2024/04/23 08:12:22;;;;;;;5.78;2.75;;;;;;;19.10;35.75;102249.44;5408540;25;94865;-89
2024/04/23 08:14:48;;;;;;;5.88;3.28;;;;;;;19.27;35.42;102249.44;5400869;25;95854;-90
2024/04/23 08:17:14;;;;;;;6.38;3.67;;;;;;;19.32;33.93;102245.03;5367231;26;98336;-90
2024/04/23 08:19:39;;;;;;;4.38;2.78;;;;;;;19.24;33.18;102243.28;5377276;25;94859;-89
2024/04/23 08:22:05;;;;;;;5.93;3.03;;;;;;;18.73;31.89;102238.81;5388953;25;94968;-89
2024/04/23 08:24:30;;;;;;;5.32;3.10;;;;;;;18.06;32.14;102239.56;5384600;25;95771;-89
2024/04/23 08:26:55;;;;;;;7.30;3.67;;;;;;;17.39;32.57;102246.22;5417982;25;98555;-89
2024/04/23 08:29:21;;;;;;;6.25;4.13;;;;;;;16.80;32.70;102246.59;5367084;25;95391;-89
2024/04/23 08:31:47;;;;;;;7.38;5.00;;;;;;;16.20;33.33;102246.84;5406520;25;95026;-89
2024/04/23 08:34:13;;;;;;;6.72;4.40;;;;;;;15.72;33.55;102245.34;5376466;25;98872;-89
2024/04/23 08:36:38;;;;;;;6.72;3.72;;;;;;;15.27;33.84;102249.06;5383741;25;95895;-89
2024/04/23 08:39:04;;;;;;;6.97;3.83;;;;;;;14.89;34.41;102246.72;5352778;25;94982;-88
2024/04/23 08:41:35;;;;;;;7.13;3.97;;;;;;;14.60;34.92;102247.97;5376637;26;95118;-89
2024/04/23 08:44:08;;;;;;;9.63;4.20;;;;;;;14.37;35.74;102241.38;5368627;25;98636;-87
2024/04/23 08:46:34;;;;;;;7.00;4.00;;;;;;;14.24;36.29;102234.97;5404959;26;98369;-89
2024/04/23 08:49:01;;;;;;;7.60;3.65;;;;;;;14.36;37.13;102247.47;5362841;26;95095;-88
2024/04/23 08:51:30;;;;;;;6.05;3.67;;;;;;;14.44;36.37;102244.13;5416679;25;95217;-88
2024/04/23 08:53:58;;;;;;;7.35;3.45;;;;;;;14.38;35.73;102233.50;5384557;25;98671;-89
2024/04/23 08:56:29;;;;;;;6.20;3.40;;;;;;;14.23;35.63;102235.84;5408971;25;97435;-87
2024/04/23 08:58:55;;;;;;;6.05;4.15;;;;;;;14.11;35.59;102239.09;5397134;25;94973;-88
2024/04/23 09:01:28;;;;;;;6.90;3.30;;;;;;;13.97;35.87;102230.06;5417312;25;95092;-88
2024/04/23 09:03:58;;;;;;;7.50;3.47;;;;;;;13.81;35.40;102234.09;5355420;25;98818;-88
2024/04/23 09:06:25;;;;;;;6.15;3.83;;;;;;;13.70;36.29;102226.88;5402209;26;95827;-88
2024/04/23 09:08:52;;;;;;;5.45;3.83;;;;;;;13.74;36.49;102222.59;5410975;25;94968;-89
2024/04/23 09:11:17;;;;;;;6.40;3.90;;;;;;;13.78;36.10;102218.28;5379413;26;94950;-88
2024/04/23 09:13:43;;;;;;;6.43;4.45;;;;;;;13.83;36.07;102222.81;5403004;25;95505;-88
2024/04/23 09:16:09;;;;;;;6.53;3.22;;;;;;;13.92;35.90;102216.88;5398389;25;95690;-89
2024/04/23 09:18:34;;;;;;;5.18;3.80;;;;;;;14.00;36.09;102211.78;5393849;25;94807;-89
2024/04/23 09:21:04;;;;;;;6.85;4.20;;;;;;;14.08;35.99;102211.06;5410395;25;94967;-88
2024/04/23 09:23:33;;;;;;;6.35;4.03;;;;;;;14.19;36.10;102211.28;5399845;25;98460;-88
2024/04/23 09:26:00;;;;;;;5.32;2.63;;;;;;;14.33;35.96;102205.41;5380523;26;98746;-89
2024/04/23 09:28:26;;;;;;;8.88;3.58;;;;;;;14.45;35.84;102203.88;5421142;25;94945;-88
2024/04/23 09:30:51;;;;;;;6.50;3.40;;;;;;;14.57;35.35;102195.34;5369177;26;94904;-89
2024/04/23 09:33:25;;;;;;;6.47;4.53;;;;;;;14.75;35.19;102199.19;5414709;25;97830;-89
2024/04/23 09:36:09;;;;;;;6.80;3.45;;;;;;;14.89;35.28;102187.16;5398927;25;98503;-88
2024/04/23 09:38:41;;;;;;;6.63;3.25;;;;;;;15.02;34.64;102190.88;5402873;25;94699;-89
2024/04/23 09:41:09;;;;;;;6.32;2.90;;;;;;;15.07;34.59;102183.94;5360762;26;94892;-89
2024/04/23 09:43:36;;;;;;;5.43;3.78;;;;;;;15.11;34.39;102180.50;5369562;26;98549;-89
2024/04/23 09:46:03;;;;;;;5.97;3.45;;;;;;;15.07;34.07;102186.56;5359203;26;96387;-88
2024/04/23 09:48:33;;;;;;;6.07;3.38;;;;;;;14.93;33.30;102178.47;5346962;26;94859;-89
2024/04/23 09:51:06;;;;;;;6.60;3.15;;;;;;;14.77;33.70;102177.31;5359847;26;95033;-88
2024/04/23 09:53:33;;;;;;;5.13;3.33;;;;;;;14.82;34.39;102170.41;5365001;26;98108;-88
2024/04/23 09:56:04;;;;;;;5.60;3.67;;;;;;;14.97;34.40;102175.03;5388649;26;98692;-88
2024/04/23 09:58:30;;;;;;;4.88;3.53;;;;;;;15.12;34.07;102158.63;5374995;26;94953;-89
2024/04/23 10:00:56;;;;;;;5.68;3.25;;;;;;;15.18;33.66;102163.94;5381309;25;95060;-88
2024/04/23 10:03:24;;;;;;;6.72;4.07;;;;;;;15.27;34.10;102157.94;5381336;25;97410;-90
2024/04/23 10:06:10;;;;;;;5.30;2.90;;;;;;;15.43;34.22;102153.78;5385484;25;98669;-88
2024/04/23 10:08:44;;;;;;;6.18;3.45;;;;;;;15.64;33.64;102153.19;5398570;25;94795;-89
2024/04/23 10:11:11;;;;;;;5.28;3.00;;;;;;;15.75;33.05;102148.09;5395287;25;94963;-88
2024/04/23 10:13:52;;;;;;;6.03;3.60;;;;;;;15.78;33.71;102146.38;5360276;26;96502;-88
2024/04/23 10:16:34;;;;;;;6.03;3.63;;;;;;;15.95;33.28;102140.41;5374799;26;97558;-88
2024/04/23 10:19:06;;;;;;;6.38;3.60;;;;;;;16.14;32.76;102138.88;5386848;26;94748;-88
2024/04/23 10:21:41;;;;;;;6.07;3.63;;;;;;;16.27;32.10;102143.38;5400743;25;94872;-87
2024/04/23 10:24:09;;;;;;;5.15;3.17;;;;;;;16.25;31.94;102136.34;5405207;26;98684;-86
2024/04/23 10:26:43;;;;;;;6.75;3.05;;;;;;;16.19;32.14;102124.00;5389233;25;98260;-88
2024/04/23 10:29:10;;;;;;;7.13;3.35;;;;;;;16.22;32.03;102123.13;5389001;25;94875;-86
2024/04/23 10:31:36;;;;;;;4.43;3.45;;;;;;;16.24;32.04;102126.66;5377922;26;95053;-89
2024/04/23 10:34:03;;;;;;;5.00;3.13;;;;;;;16.22;31.44;102121.41;5403203;26;98111;-89
2024/04/23 10:36:30;;;;;;;4.57;2.75;;;;;;;16.16;31.35;102123.97;5383275;25;95533;-89
2024/04/23 10:38:59;;;;;;;5.07;2.80;;;;;;;16.25;31.97;102121.41;5408864;26;94769;-90
2024/04/23 10:41:29;;;;;;;5.38;2.35;;;;;;;16.47;31.86;102114.63;5414153;26;94922;-91
2024/04/23 10:43:56;;;;;;;6.40;3.00;;;;;;;16.64;31.31;102114.72;5384811;26;97836;-92
2024/04/23 10:46:22;;;;;;;5.22;3.00;;;;;;;16.80;31.29;102109.59;5394385;25;97680;-92
2024/04/23 10:48:55;;;;;;;3.95;2.30;;;;;;;16.97;30.60;102109.72;5420719;25;94596;-88
2024/04/23 10:51:25;;;;;;;5.32;2.92;;;;;;;17.08;30.66;102108.03;5440375;25;94865;-89
2024/04/23 10:53:51;;;;;;;4.57;2.35;;;;;;;17.21;30.54;102103.72;5380242;26;98776;-88
2024/04/23 10:56:24;;;;;;;4.55;2.60;;;;;;;17.27;29.61;102102.00;5424588;25;95827;-89
2024/04/23 10:59:03;;;;;;;4.25;3.03;;;;;;;17.22;28.76;102103.72;5419344;25;94704;-90
2024/04/23 11:01:29;;;;;;;4.43;2.42;;;;;;;17.07;29.27;102098.34;5380583;26;94709;-89
2024/04/23 11:04:03;;;;;;;4.93;2.70;;;;;;;16.97;28.82;102097.44;5386575;25;97535;-88
2024/04/23 11:06:40;;;;;;;5.22;3.20;;;;;;;17.00;29.52;102093.94;5426096;25;95535;-89
2024/04/23 11:09:19;;;;;;;4.70;2.70;;;;;;;17.05;29.37;102085.16;5379911;26;94788;-89
2024/04/23 11:11:50;;;;;;;5.40;2.63;;;;;;;17.16;29.64;102092.25;5409673;26;94882;-89
2024/04/23 11:14:16;;;;;;;4.65;2.80;;;;;;;17.25;29.86;102077.34;5379852;26;95712;-90
2024/04/23 11:16:42;;;;;;;4.65;3.13;;;;;;;17.36;30.52;102079.16;5373759;26;97301;-88
2024/04/23 11:19:07;;;;;;;6.53;3.75;;;;;;;17.59;30.42;102082.75;5409818;26;94851;-89
2024/04/23 11:21:41;;;;;;;5.88;3.22;;;;;;;17.58;29.73;102069.59;5383036;26;94640;-90
2024/04/23 11:24:10;;;;;;;6.60;3.42;;;;;;;17.55;30.09;102074.84;5412366;26;95875;-89
2024/04/23 11:26:37;;;;;;;7.55;3.83;;;;;;;17.64;29.80;102074.88;5415068;26;95536;-89
2024/04/23 11:29:09;;;;;;;6.47;3.05;;;;;;;17.65;29.45;102069.59;5348064;26;94763;-88
2024/04/23 11:31:35;;;;;;;5.75;3.08;;;;;;;17.65;29.64;102061.69;5356811;26;95011;-88
2024/04/23 11:34:01;;;;;;;4.60;2.95;;;;;;;17.62;29.14;102063.44;5382507;26;97660;-89
2024/04/23 11:36:27;;;;;;;5.00;3.60;;;;;;;17.56;29.55;102053.75;5412870;26;95613;-89